Lakeridge, Nevada
Current Conditions -  °F | °C
As of 6:53 PM on Sunday 21 Dec 2014 (Local Time) from KTVL Reporting Station
Clear Clear  
Wind Chill: 38°   Ceiling: Unl
Heat Index: 38°   Visibility: 10mi
Dew Point: 34°   Wind: 3mph
Humidity: 86%   Direction: 200°SSW
Pressure: 30.35"   Gusts: NA
Location:  38.9569°N, 119.899°W
Report Text: KTVL 220253Z AUTO 20003KT 10SM CLR 03/01 A3035 RMK AO2 SLP259 T00330011 51009
Loading
Personal Weather Stations






























Interactive Weather Map New forecast layout! Learn more

10-Day Weather Forecast

Advertisements
Track Severe Weather on mobile